Time;durP1;ratioP1;P1;durP2;ratioP2;P2;SDS_P1;SDS_P2;PMS_P1;PMS_P2;Temp;Humidity;BMP_temperature;BMP_pressure;BME280_temperature;BME280_humidity;BME280_pressure;Samples;Min_cycle;Max_cycle;Signal;HPM_P1;HPM_P2
2021/08/16 00:01:11;;;;;;;15.43;3.95;;;;;;;18.88;66.04;100772.06;5095797;28;20463;-68
2021/08/16 00:03:38;;;;;;;9.95;3.33;;;;;;;18.80;66.26;100773.91;5111019;28;20050;-68
2021/08/16 00:06:05;;;;;;;11.63;3.50;;;;;;;18.77;64.91;100765.41;5113549;28;20048;-68
2021/08/16 00:08:31;;;;;;;8.77;3.15;;;;;;;18.67;64.59;100767.72;5113581;28;20066;-68
2021/08/16 00:11:02;;;;;;;10.18;3.30;;;;;;;18.57;64.82;100763.59;5112492;28;20057;-68
2021/08/16 00:13:31;;;;;;;14.75;3.75;;;;;;;18.48;64.51;100755.91;5113332;28;20469;-68
2021/08/16 00:15:58;;;;;;;11.88;3.22;;;;;;;18.36;64.92;100759.22;5095532;28;20062;-68
2021/08/16 00:18:25;;;;;;;10.60;3.20;;;;;;;18.40;64.80;100765.00;5112303;28;20040;-68
2021/08/16 00:20:51;;;;;;;17.90;3.13;;;;;;;18.38;65.07;100765.22;5112249;28;20048;-68
2021/08/16 00:23:18;;;;;;;12.70;3.15;;;;;;;18.38;63.93;100775.94;5095974;28;20036;-67
2021/08/16 00:25:45;;;;;;;12.10;3.00;;;;;;;18.27;63.87;100771.19;5114085;28;20404;-67
2021/08/16 00:28:12;;;;;;;17.65;3.20;;;;;;;18.03;62.78;100775.28;5106473;28;20135;-68
2021/08/16 00:30:38;;;;;;;16.60;2.90;;;;;;;17.96;61.90;100763.69;5113577;28;20036;-68
2021/08/16 00:33:05;;;;;;;11.65;3.17;;;;;;;17.90;61.92;100778.75;5112042;28;20055;-68
2021/08/16 00:35:32;;;;;;;13.73;3.47;;;;;;;17.67;62.42;100770.16;5093340;28;20054;-68
2021/08/16 00:37:58;;;;;;;19.17;3.28;;;;;;;17.69;61.85;100770.78;5111896;28;20408;-68
2021/08/16 00:40:25;;;;;;;11.80;2.90;;;;;;;17.59;62.16;100771.13;5111787;28;20047;-68
2021/08/16 00:42:52;;;;;;;14.80;3.35;;;;;;;17.64;61.58;100764.19;5095196;28;20038;-68
2021/08/16 00:45:19;;;;;;;12.23;3.15;;;;;;;17.49;62.10;100776.88;5111909;28;20036;-68
2021/08/16 00:47:46;;;;;;;16.77;3.30;;;;;;;17.58;61.58;100783.72;5111902;28;20583;-68
2021/08/16 00:50:14;;;;;;;15.30;3.30;;;;;;;17.47;61.97;100786.97;5112988;28;20077;-68
2021/08/16 00:52:42;;;;;;;10.52;3.05;;;;;;;17.35;63.03;100786.69;5113217;28;20364;-68
2021/08/16 00:55:10;;;;;;;13.32;2.97;;;;;;;17.48;62.06;100790.47;5112150;28;20097;-68
2021/08/16 00:57:38;;;;;;;11.35;2.78;;;;;;;17.33;62.02;100791.44;5111663;28;20074;-68
2021/08/16 01:00:07;;;;;;;14.07;2.67;;;;;;;17.34;62.03;100792.28;5112635;28;20043;-68
2021/08/16 01:02:34;;;;;;;18.02;3.60;;;;;;;17.30;62.02;100789.16;5111820;28;20047;-68
2021/08/16 01:05:05;;;;;;;15.35;3.00;;;;;;;17.34;62.18;100781.56;5112870;28;20069;-68
2021/08/16 01:07:33;;;;;;;12.32;3.10;;;;;;;17.23;62.38;100793.66;5111187;28;20043;-68
2021/08/16 01:10:01;;;;;;;12.27;3.13;;;;;;;17.22;62.84;100795.50;5112654;28;20122;-68
2021/08/16 01:12:31;;;;;;;15.20;2.85;;;;;;;17.35;62.68;100796.59;5111933;28;20100;-68
2021/08/16 01:14:59;;;;;;;11.15;2.80;;;;;;;17.48;62.42;100801.22;5092782;28;20054;-68
2021/08/16 01:17:26;;;;;;;16.13;3.33;;;;;;;17.41;62.92;100796.66;5112759;28;20514;-68
2021/08/16 01:19:53;;;;;;;14.10;3.45;;;;;;;17.19;63.68;100798.59;5112689;28;20039;-68
2021/08/16 01:22:20;;;;;;;13.63;3.10;;;;;;;17.25;63.77;100789.75;5112519;28;20040;-67
2021/08/16 01:24:47;;;;;;;16.13;3.30;;;;;;;17.25;63.85;100786.25;5112526;28;20491;-67
2021/08/16 01:27:14;;;;;;;11.73;3.10;;;;;;;17.08;64.64;100783.03;5106250;28;20043;-68
2021/08/16 01:29:41;;;;;;;17.55;3.70;;;;;;;17.28;63.93;100785.84;5112526;28;20047;-68
2021/08/16 01:32:08;;;;;;;15.55;3.28;;;;;;;17.20;64.31;100794.88;5111393;28;20496;-67
2021/08/16 01:34:36;;;;;;;16.05;3.03;;;;;;;17.03;65.05;100788.97;5112493;28;20035;-68
2021/08/16 01:37:03;;;;;;;13.80;3.60;;;;;;;16.99;65.61;100793.09;5112857;28;20130;-67
2021/08/16 01:39:29;;;;;;;14.48;2.95;;;;;;;16.97;65.20;100795.13;5112231;28;20043;-67
2021/08/16 01:41:56;;;;;;;15.57;3.05;;;;;;;17.04;65.44;100789.81;5111241;28;20036;-68
2021/08/16 01:44:23;;;;;;;18.88;3.00;;;;;;;17.13;64.94;100793.16;5112652;28;20514;-67
2021/08/16 01:46:51;;;;;;;12.18;3.15;;;;;;;17.12;64.94;100783.47;5111138;28;20044;-68
2021/08/16 01:49:18;;;;;;;16.17;3.42;;;;;;;17.10;64.90;100789.03;5110943;28;20507;-68
2021/08/16 01:51:47;;;;;;;13.48;3.42;;;;;;;17.08;65.18;100786.56;5110881;28;20047;-68
2021/08/16 01:54:15;;;;;;;15.52;3.13;;;;;;;17.02;65.45;100781.97;5111040;28;20058;-67
2021/08/16 01:56:42;;;;;;;12.30;3.30;;;;;;;16.98;65.70;100793.28;5111450;28;20067;-67
2021/08/16 01:59:10;;;;;;;20.15;3.67;;;;;;;17.05;65.75;100796.84;5112126;28;20100;-67
2021/08/16 02:01:37;;;;;;;16.65;3.25;;;;;;;17.10;64.88;100790.88;5110978;28;20040;-67
2021/08/16 02:04:05;;;;;;;19.17;3.78;;;;;;;16.96;65.23;100789.97;5112254;28;20395;-67
2021/08/16 02:06:31;;;;;;;17.02;3.50;;;;;;;16.91;65.05;100789.72;5111761;28;20541;-67
2021/08/16 02:08:58;;;;;;;11.57;3.22;;;;;;;16.94;65.18;100789.34;5114580;28;20040;-67
2021/08/16 02:11:25;;;;;;;18.77;3.33;;;;;;;16.98;64.75;100786.06;5116165;28;20097;-67
2021/08/16 02:13:52;;;;;;;16.35;4.90;;;;;;;16.87;65.04;100782.06;5116666;28;20035;-68
2021/08/16 02:16:18;;;;;;;16.73;3.70;;;;;;;16.88;65.17;100781.06;5115202;28;20168;-68
2021/08/16 02:18:45;;;;;;;13.13;3.08;;;;;;;16.86;65.30;100780.41;5115975;28;20131;-68
2021/08/16 02:21:12;;;;;;;18.35;3.50;;;;;;;16.90;65.16;100775.50;5114011;28;20554;-69
2021/08/16 02:23:39;;;;;;;16.17;3.80;;;;;;;16.66;65.77;100774.88;5116084;28;20039;-68
2021/08/16 02:26:06;;;;;;;18.88;3.58;;;;;;;16.70;65.31;100767.28;5111107;28;20123;-68
2021/08/16 02:28:33;;;;;;;15.25;3.17;;;;;;;16.70;65.62;100775.31;5128011;27;20039;-68
2021/08/16 02:31:00;;;;;;;16.40;3.53;;;;;;;16.70;65.75;100772.63;5115179;27;20043;-68
2021/08/16 02:33:27;;;;;;;17.55;3.70;;;;;;;16.59;65.99;100776.66;5109705;28;20036;-68
2021/08/16 02:35:54;;;;;;;22.23;3.97;;;;;;;16.56;66.10;100774.38;5095294;28;20036;-68
2021/08/16 02:38:21;;;;;;;13.77;3.53;;;;;;;16.65;65.53;100767.84;5076921;28;20048;-68
2021/08/16 02:40:48;;;;;;;18.85;3.63;;;;;;;16.58;66.05;100775.00;5094083;28;20139;-68
2021/08/16 02:43:14;;;;;;;18.95;3.55;;;;;;;16.59;65.78;100773.13;5096601;28;20040;-68
2021/08/16 02:45:41;;;;;;;19.08;3.58;;;;;;;16.55;65.88;100772.69;5105057;28;20051;-68
2021/08/16 02:48:08;;;;;;;15.80;3.58;;;;;;;16.54;65.87;100770.22;5114305;28;20092;-68
2021/08/16 02:50:35;;;;;;;11.90;3.42;;;;;;;16.43;66.36;100771.56;5115554;28;20051;-68
2021/08/16 02:53:03;;;;;;;14.18;3.35;;;;;;;16.38;66.98;100774.81;5115249;28;20043;-68
2021/08/16 02:55:30;;;;;;;15.23;3.63;;;;;;;16.58;66.18;100766.13;5096949;28;20035;-68
2021/08/16 02:57:56;;;;;;;16.10;3.88;;;;;;;16.59;66.05;100770.47;5114994;28;20048;-68
2021/08/16 03:00:24;;;;;;;21.02;4.03;;;;;;;16.47;66.42;100759.44;5114574;28;20051;-68
2021/08/16 03:02:51;;;;;;;17.30;4.13;;;;;;;16.43;66.65;100759.00;5113595;28;20407;-68
2021/08/16 03:05:17;;;;;;;17.85;3.72;;;;;;;16.48;66.66;100756.59;5115040;28;20047;-68
2021/08/16 03:07:44;;;;;;;18.88;3.97;;;;;;;16.31;66.98;100760.53;5114869;28;20054;-68
2021/08/16 03:10:12;;;;;;;19.63;4.05;;;;;;;16.29;67.67;100749.19;5114722;27;20146;-68
2021/08/16 03:12:39;;;;;;;17.85;4.22;;;;;;;16.23;67.62;100749.97;5113282;28;20408;-68
2021/08/16 03:15:07;;;;;;;16.45;4.22;;;;;;;16.35;67.42;100753.78;5111842;28;20139;-68
2021/08/16 03:17:34;;;;;;;16.77;3.83;;;;;;;16.53;66.97;100749.81;5114651;28;20044;-68
2021/08/16 03:20:01;;;;;;;17.13;4.35;;;;;;;16.31;67.41;100749.81;5114676;28;20147;-67
2021/08/16 03:22:28;;;;;;;13.88;3.88;;;;;;;16.44;67.31;100743.75;5114690;28;20049;-68
2021/08/16 03:24:55;;;;;;;18.05;4.57;;;;;;;16.39;67.46;100744.34;5113124;28;20441;-68
2021/08/16 03:27:22;;;;;;;17.20;3.67;;;;;;;16.50;66.99;100740.34;5106658;28;20054;-68
2021/08/16 03:29:49;;;;;;;22.83;4.60;;;;;;;16.56;66.85;100744.91;5113278;28;20122;-68
2021/08/16 03:32:15;;;;;;;19.13;4.30;;;;;;;16.47;67.76;100730.81;5114621;28;20043;-68
2021/08/16 03:34:42;;;;;;;18.60;4.20;;;;;;;16.53;67.41;100739.94;5096298;28;20056;-68
2021/08/16 03:37:09;;;;;;;18.73;4.60;;;;;;;16.48;67.42;100735.16;5112587;28;20039;-68
2021/08/16 03:39:36;;;;;;;12.43;4.13;;;;;;;16.45;67.66;100743.56;5113628;28;20074;-68
2021/08/16 03:42:03;;;;;;;19.52;4.32;;;;;;;16.44;67.66;100738.41;5114352;28;20047;-68
2021/08/16 03:44:30;;;;;;;19.38;4.50;;;;;;;16.37;68.15;100745.56;5112623;28;20495;-68
2021/08/16 03:46:56;;;;;;;19.60;4.43;;;;;;;16.33;68.44;100745.09;5112821;28;20044;-68
2021/08/16 03:49:23;;;;;;;13.43;4.00;;;;;;;16.33;68.42;100738.94;5114125;28;20039;-68
2021/08/16 03:51:50;;;;;;;15.50;4.00;;;;;;;16.34;68.44;100743.28;5114234;28;20051;-68
2021/08/16 03:54:17;;;;;;;16.58;4.45;;;;;;;16.36;68.68;100750.09;5111944;28;20032;-68
2021/08/16 03:56:43;;;;;;;18.45;4.22;;;;;;;16.43;68.24;100737.59;5112486;28;20047;-68
2021/08/16 03:59:10;;;;;;;16.95;3.95;;;;;;;16.42;68.61;100738.59;5113762;28;20043;-68
2021/08/16 04:01:37;;;;;;;24.10;6.07;;;;;;;16.46;68.29;100745.25;5113955;28;20048;-68
2021/08/16 04:04:04;;;;;;;24.13;5.32;;;;;;;16.54;67.86;100738.91;5112724;28;20032;-68
2021/08/16 04:06:31;;;;;;;16.95;4.13;;;;;;;16.40;68.46;100746.00;5095532;28;20042;-68
2021/08/16 04:08:57;;;;;;;17.98;3.90;;;;;;;16.42;68.50;100738.59;5113193;28;20054;-68
2021/08/16 04:11:24;;;;;;;19.95;4.45;;;;;;;16.39;68.81;100755.06;5112378;28;20042;-68
2021/08/16 04:13:51;;;;;;;17.98;4.22;;;;;;;16.36;69.39;100741.22;5110813;28;20086;-68
2021/08/16 04:16:17;;;;;;;19.13;4.25;;;;;;;16.45;68.89;100735.53;5113620;28;20492;-68
2021/08/16 04:18:44;;;;;;;18.02;4.22;;;;;;;16.40;68.96;100737.97;5112387;28;20067;-68
2021/08/16 04:21:11;;;;;;;19.17;3.83;;;;;;;16.46;68.57;100728.34;5112292;28;20042;-68
2021/08/16 04:23:38;;;;;;;17.70;4.20;;;;;;;16.42;69.31;100738.59;5111967;28;20112;-68
2021/08/16 04:26:04;;;;;;;24.10;4.60;;;;;;;16.32;69.61;100740.78;5095016;28;20038;-67
2021/08/16 04:28:31;;;;;;;18.50;3.80;;;;;;;16.32;70.09;100740.78;5113194;28;20040;-68
2021/08/16 04:30:58;;;;;;;26.23;4.40;;;;;;;16.46;69.43;100736.38;5113074;28;20046;-68
2021/08/16 04:33:25;;;;;;;18.27;3.75;;;;;;;16.37;69.88;100745.56;5113364;28;20089;-68
2021/08/16 04:35:53;;;;;;;19.77;3.90;;;;;;;16.17;70.55;100746.22;5112987;28;20129;-68
2021/08/16 04:38:22;;;;;;;20.10;4.05;;;;;;;16.29;70.46;100746.50;5110266;28;20044;-68
2021/08/16 04:40:51;;;;;;;17.90;4.25;;;;;;;16.34;70.20;100757.47;5112502;28;20039;-68
2021/08/16 04:43:19;;;;;;;19.85;4.00;;;;;;;16.22;70.61;100745.63;5113152;28;20426;-66
2021/08/16 04:45:45;;;;;;;12.23;3.53;;;;;;;16.43;70.26;100745.63;5112954;28;20040;-66
2021/08/16 04:48:12;;;;;;;18.52;3.63;;;;;;;16.43;70.10;100745.63;5113693;28;20039;-67
2021/08/16 04:50:39;;;;;;;19.98;4.05;;;;;;;16.50;69.92;100745.69;5112042;28;20063;-67
2021/08/16 04:53:06;;;;;;;15.80;3.55;;;;;;;16.54;69.95;100752.31;5112734;28;20028;-67
2021/08/16 04:55:33;;;;;;;21.42;4.07;;;;;;;16.52;70.26;100746.31;5112543;28;20044;-67
2021/08/16 04:58:00;;;;;;;24.50;4.10;;;;;;;16.61;69.68;100747.03;5111569;28;20100;-69
2021/08/16 05:00:27;;;;;;;18.10;3.88;;;;;;;16.60;69.74;100754.19;5112894;28;20055;-68
2021/08/16 05:02:55;;;;;;;20.58;4.07;;;;;;;16.57;69.76;100748.41;5111588;28;20050;-68
2021/08/16 05:05:28;;;;;;;27.17;4.30;;;;;;;16.58;69.97;100750.91;5109842;28;20423;-67
2021/08/16 05:07:58;;;;;;;23.05;4.13;;;;;;;16.40;70.48;100756.69;5110922;28;20050;-67
2021/08/16 05:10:27;;;;;;;16.13;3.60;;;;;;;16.38;70.76;100744.53;5112635;28;20035;-68
2021/08/16 05:12:56;;;;;;;27.33;4.43;;;;;;;16.43;70.68;100750.97;5111027;28;20399;-68
2021/08/16 05:15:23;;;;;;;21.30;4.90;;;;;;;16.47;70.57;100749.56;5094724;28;20385;-68
2021/08/16 05:17:52;;;;;;;22.83;4.30;;;;;;;16.41;70.82;100754.84;5099995;28;20044;-68
2021/08/16 05:20:20;;;;;;;19.88;4.40;;;;;;;16.38;71.02;100753.41;5090931;28;20101;-68
2021/08/16 05:22:47;;;;;;;20.55;4.47;;;;;;;16.57;70.51;100759.13;5108496;28;20048;-69
2021/08/16 05:25:16;;;;;;;19.15;4.18;;;;;;;16.55;70.64;100761.97;5090537;28;20113;-69
2021/08/16 05:27:43;;;;;;;14.25;3.70;;;;;;;16.58;70.73;100758.94;5085836;28;20048;-69
2021/08/16 05:30:11;;;;;;;26.73;5.53;;;;;;;16.58;70.39;100756.25;5112220;28;20044;-69
2021/08/16 05:32:38;;;;;;;18.30;4.18;;;;;;;16.47;70.92;100760.28;5111383;28;20130;-69
2021/08/16 05:35:07;;;;;;;20.48;5.13;;;;;;;16.44;71.16;100749.13;5109851;28;20046;-69
2021/08/16 05:37:34;;;;;;;18.75;5.30;;;;;;;16.42;71.48;100762.69;5077816;28;20067;-69
2021/08/16 05:40:02;;;;;;;19.83;5.10;;;;;;;16.44;71.69;100757.16;5110858;28;20031;-69
2021/08/16 05:42:29;;;;;;;21.20;4.93;;;;;;;16.53;71.65;100765.88;5113408;28;20044;-69
2021/08/16 05:44:55;;;;;;;22.45;4.72;;;;;;;16.45;71.99;100756.97;5116265;28;20040;-69
2021/08/16 05:47:22;;;;;;;23.85;4.65;;;;;;;16.44;71.98;100757.97;5116528;28;20092;-69
2021/08/16 05:49:49;;;;;;;19.83;4.22;;;;;;;16.45;72.15;100762.31;5094736;28;20040;-69
2021/08/16 05:52:16;;;;;;;23.88;4.15;;;;;;;16.33;72.45;100765.69;5111944;28;20040;-70
2021/08/16 05:54:43;;;;;;;22.05;4.22;;;;;;;16.29;72.78;100770.59;5113046;28;20032;-69
2021/08/16 05:57:09;;;;;;;17.83;4.07;;;;;;;16.29;72.71;100759.91;5114600;28;20063;-69
2021/08/16 05:59:36;;;;;;;28.02;3.83;;;;;;;16.42;72.12;100770.72;5115757;28;20063;-68
2021/08/16 06:02:04;;;;;;;15.98;4.07;;;;;;;16.45;72.24;100762.31;5098184;28;20096;-68
2021/08/16 06:04:32;;;;;;;19.48;4.35;;;;;;;16.59;71.66;100759.75;5115721;28;20043;-69
2021/08/16 06:06:59;;;;;;;17.35;4.43;;;;;;;16.54;71.85;100765.69;5112960;28;20131;-69
2021/08/16 06:09:26;;;;;;;24.77;4.20;;;;;;;16.47;71.82;100754.91;5115537;28;20195;-69
2021/08/16 06:11:53;;;;;;;19.63;4.18;;;;;;;16.56;71.83;100762.84;5080862;28;20134;-69
2021/08/16 06:14:20;;;;;;;23.33;4.07;;;;;;;16.56;71.95;100766.31;5115046;28;20036;-69
2021/08/16 06:16:47;;;;;;;16.60;3.97;;;;;;;16.70;71.51;100765.41;5081041;28;20101;-68
2021/08/16 06:19:14;;;;;;;17.17;4.10;;;;;;;16.59;71.80;100763.28;5115751;28;20118;-69
2021/08/16 06:21:42;;;;;;;19.08;4.10;;;;;;;16.67;71.48;100762.31;5097996;28;20057;-69
2021/08/16 06:24:11;;;;;;;17.58;3.90;;;;;;;16.73;71.37;100758.84;5114318;28;20048;-69
2021/08/16 06:26:39;;;;;;;20.23;4.00;;;;;;;16.74;71.27;100765.88;5109687;28;20054;-70
2021/08/16 06:29:06;;;;;;;15.82;4.57;;;;;;;16.81;70.93;100766.75;5114502;28;20408;-69
2021/08/16 06:31:33;;;;;;;22.73;4.28;;;;;;;16.79;71.20;100766.13;5115888;28;20067;-69
2021/08/16 06:34:00;;;;;;;18.15;4.50;;;;;;;16.81;71.17;100761.38;5115763;28;20046;-70
2021/08/16 06:36:27;;;;;;;22.80;4.32;;;;;;;16.86;70.84;100767.03;5112759;28;20094;-70
2021/08/16 06:38:54;;;;;;;16.00;3.90;;;;;;;16.88;70.94;100758.78;5114917;28;20055;-71
2021/08/16 06:41:20;;;;;;;15.52;4.18;;;;;;;16.97;70.82;100764.81;5115605;28;20058;-69
2021/08/16 06:43:48;;;;;;;23.63;4.10;;;;;;;17.01;70.38;100760.75;5115489;28;20043;-69
2021/08/16 06:46:15;;;;;;;19.90;4.15;;;;;;;17.09;70.09;100765.94;5114431;28;20040;-69
2021/08/16 06:48:42;;;;;;;14.38;3.58;;;;;;;17.10;70.13;100750.66;5115543;28;20074;-70
2021/08/16 06:51:09;;;;;;;17.67;3.65;;;;;;;17.00;70.97;100751.03;5115089;28;20443;-69
2021/08/16 06:53:36;;;;;;;24.48;4.43;;;;;;;16.98;70.88;100753.09;5114568;28;20054;-69
2021/08/16 06:56:03;;;;;;;24.48;6.13;;;;;;;17.04;71.05;100754.97;5113740;28;20051;-69
2021/08/16 06:58:31;;;;;;;19.42;4.80;;;;;;;17.18;69.97;100759.38;5115045;28;20065;-70
2021/08/16 07:00:59;;;;;;;17.40;3.95;;;;;;;17.14;69.84;100747.41;5115425;28;20054;-69
2021/08/16 07:03:28;;;;;;;17.95;4.20;;;;;;;17.07;70.59;100746.53;5113861;28;20117;-72
2021/08/16 07:05:55;;;;;;;23.80;4.35;;;;;;;17.15;70.10;100743.69;5114575;28;20520;-69
2021/08/16 07:08:22;;;;;;;21.05;4.53;;;;;;;17.31;69.77;100742.56;5113170;28;20495;-70
2021/08/16 07:10:49;;;;;;;17.10;4.63;;;;;;;17.45;69.86;100727.38;5115268;28;20065;-69
2021/08/16 07:13:16;;;;;;;23.00;4.32;;;;;;;17.37;69.67;100723.00;5115067;28;20391;-69
2021/08/16 07:15:43;;;;;;;16.27;4.45;;;;;;;17.50;69.45;100732.97;5114824;28;20564;-69
2021/08/16 07:18:10;;;;;;;18.70;4.60;;;;;;;17.56;68.94;100729.47;5114786;28;20128;-70
2021/08/16 07:20:37;;;;;;;21.80;4.30;;;;;;;17.52;68.99;100730.91;5114437;28;20035;-69
2021/08/16 07:23:03;;;;;;;17.05;4.45;;;;;;;17.57;68.90;100732.97;5113731;28;20046;-69
2021/08/16 07:25:30;;;;;;;22.85;4.75;;;;;;;17.64;68.57;100756.13;5114582;28;20036;-73
2021/08/16 07:27:57;;;;;;;19.27;4.60;;;;;;;17.53;69.23;100764.72;5094095;28;20043;-69
2021/08/16 07:30:24;;;;;;;26.55;4.60;;;;;;;17.65;69.01;100754.28;5079452;28;20067;-68
2021/08/16 07:32:50;;;;;;;18.50;4.40;;;;;;;17.74;68.81;100752.25;5114414;28;20043;-69
2021/08/16 07:35:17;;;;;;;23.42;4.20;;;;;;;17.65;68.85;100757.78;5111029;28;20535;-69
2021/08/16 07:37:44;;;;;;;21.30;4.60;;;;;;;17.76;68.47;100752.88;5113355;28;20403;-69
2021/08/16 07:40:12;;;;;;;17.90;4.50;;;;;;;17.77;68.16;100760.72;5116203;28;20035;-69
2021/08/16 07:42:40;;;;;;;31.40;5.05;;;;;;;17.78;68.56;100780.31;5115922;28;20039;-69
2021/08/16 07:45:08;;;;;;;21.35;4.63;;;;;;;17.78;67.99;100762.34;5114139;28;20066;-69
2021/08/16 07:47:35;;;;;;;19.42;4.65;;;;;;;17.69;69.20;100768.94;5113735;28;20039;-69
2021/08/16 07:50:02;;;;;;;22.45;5.07;;;;;;;17.67;68.49;100773.66;5114127;28;20054;-69
2021/08/16 07:52:34;;;;;;;23.77;4.85;;;;;;;17.68;68.57;100766.44;5112891;28;20054;-69
2021/08/16 07:55:00;;;;;;;25.67;4.45;;;;;;;17.62;68.69;100760.03;5113768;28;20061;-69
2021/08/16 07:57:27;;;;;;;15.38;4.60;;;;;;;17.56;68.96;100790.34;5114373;28;20055;-69
2021/08/16 07:59:56;;;;;;;16.20;4.57;;;;;;;17.49;69.36;100779.56;5095559;28;20556;-69
2021/08/16 08:02:23;;;;;;;16.33;4.40;;;;;;;17.45;69.71;100781.00;5112566;28;20621;-69
2021/08/16 08:04:50;;;;;;;17.95;4.53;;;;;;;17.35;69.88;100780.53;5112849;28;20042;-69
2021/08/16 08:07:17;;;;;;;16.52;4.60;;;;;;;17.35;69.95;100781.34;5111837;28;20066;-69
2021/08/16 08:09:44;;;;;;;20.38;4.22;;;;;;;17.49;69.47;100778.75;5112241;28;20044;-69
2021/08/16 08:12:10;;;;;;;17.80;4.38;;;;;;;17.57;69.62;100776.72;5095604;28;20385;-69
2021/08/16 08:14:37;;;;;;;19.95;4.10;;;;;;;17.54;69.49;100773.63;5095409;28;20040;-69
2021/08/16 08:17:04;;;;;;;16.33;4.25;;;;;;;17.63;69.35;100773.25;5112002;28;20036;-69
2021/08/16 08:19:30;;;;;;;16.58;4.07;;;;;;;17.60;69.00;100772.81;5112268;28;20063;-69
2021/08/16 08:21:57;;;;;;;20.20;4.53;;;;;;;17.52;69.89;100781.84;5095870;28;20047;-69
2021/08/16 08:24:24;;;;;;;17.77;4.28;;;;;;;17.60;69.99;100770.13;5113874;28;20453;-71
2021/08/16 08:26:51;;;;;;;13.35;3.92;;;;;;;17.84;68.85;100766.94;5105955;28;20040;-69
2021/08/16 08:29:17;;;;;;;17.25;4.30;;;;;;;17.96;68.67;100771.75;5112988;28;20522;-69
2021/08/16 08:31:44;;;;;;;20.08;4.20;;;;;;;18.19;67.73;100771.38;5112233;28;20143;-70
2021/08/16 08:34:11;;;;;;;15.98;4.03;;;;;;;18.19;67.89;100779.41;5111788;28;20071;-70
2021/08/16 08:36:37;;;;;;;20.10;4.28;;;;;;;18.27;67.83;100778.44;5095151;28;20048;-69
2021/08/16 08:39:04;;;;;;;16.70;3.90;;;;;;;18.25;67.51;100769.75;5113214;28;20048;-69
2021/08/16 08:41:33;;;;;;;15.93;3.95;;;;;;;18.22;67.93;100776.34;5112834;28;20389;-69
2021/08/16 08:44:05;;;;;;;14.73;3.80;;;;;;;18.27;67.86;100775.75;5112719;28;20040;-69
2021/08/16 08:46:32;;;;;;;17.60;3.70;;;;;;;18.39;67.68;100777.63;5113077;28;20139;-69
2021/08/16 08:48:59;;;;;;;15.93;3.47;;;;;;;18.35;67.22;100776.34;5111703;28;20180;-69
2021/08/16 08:51:26;;;;;;;12.10;3.80;;;;;;;18.30;67.74;100781.53;5112995;28;20440;-69
2021/08/16 08:53:53;;;;;;;23.75;4.13;;;;;;;18.25;67.75;100780.50;5113215;28;20039;-69
2021/08/16 08:56:20;;;;;;;14.18;4.00;;;;;;;18.36;67.47;100785.25;5111348;28;20050;-70
2021/08/16 08:58:47;;;;;;;14.23;3.90;;;;;;;18.42;67.50;100781.75;5112770;28;20051;-71
2021/08/16 09:01:13;;;;;;;16.20;4.15;;;;;;;18.41;67.23;100778.25;5113098;28;20063;-69
2021/08/16 09:03:48;;;;;;;14.35;3.47;;;;;;;18.41;67.54;100774.72;5094952;28;20514;-71
2021/08/16 09:06:27;;;;;;;17.52;4.10;;;;;;;18.50;67.18;100786.09;5112324;28;20051;-68
2021/08/16 09:08:56;;;;;;;16.00;3.97;;;;;;;18.62;66.80;100787.13;5111144;28;20568;-69
2021/08/16 09:11:25;;;;;;;21.98;4.63;;;;;;;18.39;67.58;100776.78;5113016;28;20039;-69
2021/08/16 09:13:58;;;;;;;16.17;3.92;;;;;;;18.37;67.06;100765.41;5113025;28;20048;-68
2021/08/16 09:16:27;;;;;;;19.27;4.30;;;;;;;18.41;67.27;100778.25;5115089;28;20043;-70
2021/08/16 09:18:55;;;;;;;16.40;4.28;;;;;;;18.34;66.93;100769.34;5116973;28;20564;-69
2021/08/16 09:21:27;;;;;;;19.13;3.90;;;;;;;18.30;67.20;100781.53;5115397;28;20082;-69
2021/08/16 09:24:00;;;;;;;16.27;3.80;;;;;;;18.53;66.33;100775.75;5117237;28;20039;-68
2021/08/16 09:26:33;;;;;;;15.30;4.15;;;;;;;18.53;66.56;100783.00;5110424;28;20068;-71
2021/08/16 09:29:17;;;;;;;18.00;4.20;;;;;;;18.61;66.27;100782.81;5116715;28;20067;-72
2021/08/16 09:34:37;;;;;;;16.27;3.65;;;;;;;18.67;65.41;100773.09;5110518;27;20384;-67
2021/08/16 09:37:26;;;;;;;22.10;4.43;;;;;;;18.73;65.53;100770.38;5090742;28;20040;-68
2021/08/16 09:40:17;;;;;;;19.02;4.50;;;;;;;18.91;65.09;100777.84;5106964;28;20097;-68
2021/08/16 09:42:57;;;;;;;18.55;4.57;;;;;;;18.99;65.08;100774.97;5110382;28;20032;-69
2021/08/16 09:45:34;;;;;;;15.05;3.78;;;;;;;19.04;64.73;100763.56;5084684;28;20448;-69
2021/08/16 09:48:04;;;;;;;12.38;4.05;;;;;;;19.07;64.87;100773.09;5089832;28;20067;-68
2021/08/16 09:50:44;;;;;;;14.57;4.10;;;;;;;18.99;64.51;100769.59;5089696;28;20492;-69
2021/08/16 09:53:16;;;;;;;15.07;3.90;;;;;;;19.07;64.31;100762.34;5089789;28;20067;-69
2021/08/16 09:55:50;;;;;;;20.88;4.53;;;;;;;19.06;64.50;100764.19;5088297;28;20131;-68
2021/08/16 09:58:18;;;;;;;18.75;4.30;;;;;;;19.04;64.05;100766.25;5088514;28;20079;-68
2021/08/16 10:00:49;;;;;;;14.55;4.30;;;;;;;18.92;64.67;100781.38;5105325;28;20501;-68
2021/08/16 10:03:17;;;;;;;15.60;4.47;;;;;;;18.61;68.01;100796.25;5088134;28;20048;-68
2021/08/16 10:05:49;;;;;;;19.23;5.00;;;;;;;18.27;71.55;100811.47;5122392;28;20045;-68
2021/08/16 10:08:23;;;;;;;17.63;5.10;;;;;;;17.85;75.76;100808.03;5087645;28;20059;-68
2021/08/16 10:10:58;;;;;;;20.20;5.63;;;;;;;17.59;76.23;100808.69;5089990;28;20127;-68
2021/08/16 10:13:26;;;;;;;15.75;5.18;;;;;;;17.45;77.17;100818.53;5090297;28;20127;-71
2021/08/16 10:16:01;;;;;;;16.42;5.95;;;;;;;17.62;77.87;100794.91;5070949;28;20198;-69
2021/08/16 10:18:35;;;;;;;17.02;5.55;;;;;;;17.56;77.77;100793.84;5089273;28;20070;-68
2021/08/16 10:21:04;;;;;;;13.98;5.32;;;;;;;17.60;77.11;100802.31;5071815;28;20572;-69
2021/08/16 10:23:30;;;;;;;18.33;5.65;;;;;;;17.60;78.14;100797.78;5087965;28;20048;-69
2021/08/16 10:26:02;;;;;;;18.05;6.05;;;;;;;17.65;76.22;100813.28;5071087;28;20111;-68
2021/08/16 10:28:40;;;;;;;14.57;5.38;;;;;;;17.66;75.95;100822.97;5087632;28;20370;-69
2021/08/16 10:31:07;;;;;;;15.50;5.88;;;;;;;17.50;78.21;100823.28;5088127;28;20166;-69
2021/08/16 10:33:49;;;;;;;22.40;6.20;;;;;;;17.32;80.26;100835.38;5065401;28;20517;-69
2021/08/16 10:36:20;;;;;;;;;;;;;;;17.03;82.43;100831.88;5082575;28;20036;-69
2021/08/16 10:38:49;;;;;;;18.15;6.18;;;;;;;16.95;83.81;100834.66;5090120;28;19924;-69
2021/08/16 10:41:26;;;;;;;20.35;6.72;;;;;;;16.82;85.11;100842.56;5088665;28;20493;-69
2021/08/16 10:43:54;;;;;;;20.65;7.72;;;;;;;16.87;86.35;100848.22;5084981;28;20036;-69
2021/08/16 10:46:23;;;;;;;12.65;4.78;;;;;;;16.89;84.69;100851.53;5075115;28;20055;-68
2021/08/16 10:49:07;;;;;;;13.07;5.18;;;;;;;16.99;85.43;100857.41;5074988;28;20070;-69
2021/08/16 10:51:46;;;;;;;14.68;4.95;;;;;;;16.84;86.01;100851.28;5084091;28;20044;-68
2021/08/16 10:54:30;;;;;;;9.38;4.03;;;;;;;17.14;85.00;100854.63;5093870;28;20511;-69
2021/08/16 10:57:00;;;;;;;8.73;4.25;;;;;;;17.15;83.36;100853.59;5094401;28;20047;-68
2021/08/16 10:59:31;;;;;;;13.07;3.80;;;;;;;17.01;82.77;100860.72;5093999;28;20039;-69
2021/08/16 11:01:58;;;;;;;11.48;4.10;;;;;;;17.01;83.28;100855.34;5095319;28;20035;-69
2021/08/16 11:07:12;;;;;;;14.15;4.95;;;;;;;17.35;85.19;100856.41;5131890;27;20338;-67
2021/08/16 11:09:39;;;;;;;13.38;4.70;;;;;;;17.22;81.58;100853.66;5110377;28;20381;-67
2021/08/16 11:12:09;;;;;;;10.57;4.82;;;;;;;17.15;80.58;100855.44;5110998;28;20040;-68
2021/08/16 11:14:40;;;;;;;11.57;4.47;;;;;;;17.13;80.38;100858.31;5110992;28;20078;-67
2021/08/16 11:17:08;;;;;;;13.35;4.40;;;;;;;16.98;80.45;100865.63;5111176;28;20445;-68
2021/08/16 11:19:46;;;;;;;14.98;4.60;;;;;;;16.89;81.49;100859.56;5093192;28;20127;-68
2021/08/16 11:22:19;;;;;;;14.23;4.55;;;;;;;16.85;82.07;100869.03;5110357;28;20054;-68
2021/08/16 11:25:03;;;;;;;9.85;3.90;;;;;;;16.65;81.04;100871.47;5088939;28;20037;-68
2021/08/16 11:27:35;;;;;;;9.90;4.90;;;;;;;16.65;82.76;100868.81;5081998;28;20040;-68